sensor_id;sensor_type;location;lat;lon;timestamp;pressure;altitude;pressure_sealevel;temperature
78669;BMP280;67984;45.118;20.724;2023-07-13T00:05:01;73403.44;;;29.35
78669;BMP280;67984;45.118;20.724;2023-07-13T00:15:06;73387.25;;;29.20
78669;BMP280;67984;45.118;20.724;2023-07-13T00:25:10;73372.59;;;29.05
78669;BMP280;67984;45.118;20.724;2023-07-13T00:35:13;73354.78;;;28.90
78669;BMP280;67984;45.118;20.724;2023-07-13T00:55:15;73326.47;;;28.63
78669;BMP280;67984;45.118;20.724;2023-07-13T01:05:19;73312.84;;;28.49
78669;BMP280;67984;45.118;20.724;2023-07-13T01:15:53;73296.53;;;28.36
78669;BMP280;67984;45.118;20.724;2023-07-13T01:25:56;73282.91;;;28.23
78669;BMP280;67984;45.118;20.724;2023-07-13T01:35:56;73269.28;;;28.09
78669;BMP280;67984;45.118;20.724;2023-07-13T01:56:00;73240.84;;;27.84
78669;BMP280;67984;45.118;20.724;2023-07-13T02:06:01;73228.22;;;27.72
78669;BMP280;67984;45.118;20.724;2023-07-13T02:16:02;73215.59;;;27.59
78669;BMP280;67984;45.118;20.724;2023-07-13T02:26:03;73202.44;;;27.47
78669;BMP280;67984;45.118;20.724;2023-07-13T02:36:04;73190.31;;;27.35
78669;BMP280;67984;45.118;20.724;2023-07-13T02:46:05;73175.56;;;27.23
78669;BMP280;67984;45.118;20.724;2023-07-13T02:56:09;73163.94;;;27.11
78669;BMP280;67984;45.118;20.724;2023-07-13T03:06:10;73152.84;;;27.01
78669;BMP280;67984;45.118;20.724;2023-07-13T03:16:19;73141.72;;;26.90
78669;BMP280;67984;45.118;20.724;2023-07-13T03:26:23;73132.13;;;26.80
78669;BMP280;67984;45.118;20.724;2023-07-13T03:36:26;73123.03;;;26.71
78669;BMP280;67984;45.118;20.724;2023-07-13T03:46:30;73115.97;;;26.65
78669;BMP280;67984;45.118;20.724;2023-07-13T03:56:31;73109.91;;;26.59
78669;BMP280;67984;45.118;20.724;2023-07-13T04:06:35;73102.19;;;26.54
78669;BMP280;67984;45.118;20.724;2023-07-13T04:16:37;73099.16;;;26.51
78669;BMP280;67984;45.118;20.724;2023-07-13T04:26:38;73097.66;;;26.49
78669;BMP280;67984;45.118;20.724;2023-07-13T04:36:39;73099.16;;;26.51
78669;BMP280;67984;45.118;20.724;2023-07-13T04:46:40;73106.72;;;26.58
78669;BMP280;67984;45.118;20.724;2023-07-13T04:56:41;73121.53;;;26.70
78669;BMP280;67984;45.118;20.724;2023-07-13T05:06:41;73135.13;;;26.83
78669;BMP280;67984;45.118;20.724;2023-07-13T05:16:42;73149.81;;;26.98
78669;BMP280;67984;45.118;20.724;2023-07-13T05:26:43;73165.94;;;27.13
78669;BMP280;67984;45.118;20.724;2023-07-13T05:36:44;73186.78;;;27.31
78669;BMP280;67984;45.118;20.724;2023-07-13T05:46:45;73205.50;;;27.50
78669;BMP280;67984;45.118;20.724;2023-07-13T05:56:45;73223.66;;;27.67
78669;BMP280;67984;45.118;20.724;2023-07-13T06:06:46;73242.34;;;27.86
78669;BMP280;67984;45.118;20.724;2023-07-13T06:16:47;73264.72;;;28.05
78669;BMP280;67984;45.118;20.724;2023-07-13T06:26:47;73282.41;;;28.22
78669;BMP280;67984;45.118;20.724;2023-07-13T06:36:48;73299.06;;;28.38
78669;BMP280;67984;45.118;20.724;2023-07-13T06:46:49;73315.72;;;28.55
78669;BMP280;67984;45.118;20.724;2023-07-13T06:56:49;73336.06;;;28.72
78669;BMP280;67984;45.118;20.724;2023-07-13T07:06:50;73352.75;;;28.88
78669;BMP280;67984;45.118;20.724;2023-07-13T07:16:51;73370.44;;;29.06
78669;BMP280;67984;45.118;20.724;2023-07-13T07:26:51;73390.28;;;29.22
78669;BMP280;67984;45.118;20.724;2023-07-13T07:36:53;73407.47;;;29.39
78669;BMP280;67984;45.118;20.724;2023-07-13T07:46:54;73425.16;;;29.57
78669;BMP280;67984;45.118;20.724;2023-07-13T07:56:55;73445.00;;;29.73
78669;BMP280;67984;45.118;20.724;2023-07-13T08:06:56;73462.69;;;29.91
78669;BMP280;67984;45.118;20.724;2023-07-13T08:16:57;73479.88;;;30.07
78669;BMP280;67984;45.118;20.724;2023-07-13T08:26:58;73497.03;;;30.24
78669;BMP280;67984;45.118;20.724;2023-07-13T08:36:59;73516.91;;;30.41
78669;BMP280;67984;45.118;20.724;2023-07-13T08:47:00;73535.63;;;30.59
78669;BMP280;67984;45.118;20.724;2023-07-13T08:57:11;73553.81;;;30.77
78669;BMP280;67984;45.118;20.724;2023-07-13T09:07:21;73576.19;;;30.96
78669;BMP280;67984;45.118;20.724;2023-07-13T09:17:35;73596.91;;;31.17
78669;BMP280;67984;45.118;20.724;2023-07-13T09:27:43;73617.13;;;31.36
78669;BMP280;67984;45.118;20.724;2023-07-13T09:37:46;73641.53;;;31.58
78669;BMP280;67984;45.118;20.724;2023-07-13T09:47:47;73663.78;;;31.79
78669;BMP280;67984;45.118;20.724;2023-07-13T09:57:48;73685.03;;;32.00
78669;BMP280;67984;45.118;20.724;2023-07-13T10:07:49;73708.94;;;32.21
78669;BMP280;67984;45.118;20.724;2023-07-13T10:17:55;73729.13;;;32.41
78669;BMP280;67984;45.118;20.724;2023-07-13T10:28:03;73751.56;;;32.60
78669;BMP280;67984;45.118;20.724;2023-07-13T10:38:10;73772.78;;;32.81
78669;BMP280;67984;45.118;20.724;2023-07-13T10:48:13;73793.00;;;33.00
78669;BMP280;67984;45.118;20.724;2023-07-13T11:08:38;73836.66;;;33.40
78669;BMP280;67984;45.118;20.724;2023-07-13T11:29:32;73874.22;;;33.74
78669;BMP280;67984;45.118;20.724;2023-07-13T11:39:37;73892.44;;;33.92
78669;BMP280;67984;45.118;20.724;2023-07-13T11:49:48;73912.69;;;34.12
78669;BMP280;67984;45.118;20.724;2023-07-13T11:59:49;73935.59;;;34.32
78669;BMP280;67984;45.118;20.724;2023-07-13T12:09:51;73954.81;;;34.50
78669;BMP280;67984;45.118;20.724;2023-07-13T12:19:52;73971.00;;;34.66
78669;BMP280;67984;45.118;20.724;2023-07-13T12:30:24;73987.22;;;34.82
78669;BMP280;67984;45.118;20.724;2023-07-13T12:40:34;74006.56;;;34.98
78669;BMP280;67984;45.118;20.724;2023-07-13T12:50:45;74022.75;;;35.14
78669;BMP280;67984;45.118;20.724;2023-07-13T13:00:50;74037.94;;;35.29
78669;BMP280;67984;45.118;20.724;2023-07-13T13:10:54;74055.78;;;35.44
78669;BMP280;67984;45.118;20.724;2023-07-13T13:20:54;74072.00;;;35.59
78669;BMP280;67984;45.118;20.724;2023-07-13T13:30:55;74088.19;;;35.75
78669;BMP280;67984;45.118;20.724;2023-07-13T13:40:55;74101.84;;;35.88
78669;BMP280;67984;45.118;20.724;2023-07-13T13:50:57;74119.03;;;36.05
78669;BMP280;67984;45.118;20.724;2023-07-13T14:00:58;74136.41;;;36.19
78669;BMP280;67984;45.118;20.724;2023-07-13T14:10:59;74148.56;;;36.31
78669;BMP280;67984;45.118;20.724;2023-07-13T14:20:59;74160.19;;;36.43
78669;BMP280;67984;45.118;20.724;2023-07-13T14:31:01;74170.81;;;36.53
78669;BMP280;67984;45.118;20.724;2023-07-13T14:41:03;74183.13;;;36.62
78669;BMP280;67984;45.118;20.724;2023-07-13T14:51:08;74189.19;;;36.68
78669;BMP280;67984;45.118;20.724;2023-07-13T15:01:12;74194.25;;;36.73
78669;BMP280;67984;45.118;20.724;2023-07-13T15:11:14;74200.31;;;36.79
78669;BMP280;67984;45.118;20.724;2023-07-13T15:21:22;74206.41;;;36.85
78669;BMP280;67984;45.118;20.724;2023-07-13T15:31:25;74211.44;;;36.90
78669;BMP280;67984;45.118;20.724;2023-07-13T15:41:28;74215.50;;;36.94
78669;BMP280;67984;45.118;20.724;2023-07-13T15:51:30;74219.56;;;36.98
78669;BMP280;67984;45.118;20.724;2023-07-13T16:01:34;74222.59;;;37.01
78669;BMP280;67984;45.118;20.724;2023-07-13T16:11:38;74226.13;;;37.04
78669;BMP280;67984;45.118;20.724;2023-07-13T16:21:42;74228.16;;;37.06
78669;BMP280;67984;45.118;20.724;2023-07-13T16:32:01;74225.09;;;37.03
78669;BMP280;67984;45.118;20.724;2023-07-13T16:42:03;74221.06;;;36.99
78669;BMP280;67984;45.118;20.724;2023-07-13T16:52:04;74212.97;;;36.92
78669;BMP280;67984;45.118;20.724;2023-07-13T17:02:31;74200.31;;;36.79
78669;BMP280;67984;45.118;20.724;2023-07-13T17:12:32;74190.19;;;36.69
78669;BMP280;67984;45.118;20.724;2023-07-13T17:22:34;74187.69;;;36.67
78669;BMP280;67984;45.118;20.724;2023-07-13T17:32:35;74182.09;;;36.61
78669;BMP280;67984;45.118;20.724;2023-07-13T17:42:36;74169.97;;;36.50
78669;BMP280;67984;45.118;20.724;2023-07-13T17:52:39;74149.56;;;36.32
78669;BMP280;67984;45.118;20.724;2023-07-13T18:02:40;74127.81;;;36.11
78669;BMP280;67984;45.118;20.724;2023-07-13T18:12:40;74103.50;;;35.87
78669;BMP280;67984;45.118;20.724;2023-07-13T18:22:42;74074.00;;;35.61
78669;BMP280;67984;45.118;20.724;2023-07-13T18:32:52;74045.69;;;35.34
78669;BMP280;67984;45.118;20.724;2023-07-13T18:42:54;74013.66;;;35.05
78669;BMP280;67984;45.118;20.724;2023-07-13T18:52:55;73983.81;;;34.76
78669;BMP280;67984;45.118;20.724;2023-07-13T19:02:55;73950.25;;;34.46
78669;BMP280;67984;45.118;20.724;2023-07-13T19:12:57;73916.72;;;34.16
78669;BMP280;67984;45.118;20.724;2023-07-13T19:23:01;73884.84;;;33.85
78669;BMP280;67984;45.118;20.724;2023-07-13T19:33:03;73847.78;;;33.51
78669;BMP280;67984;45.118;20.724;2023-07-13T19:43:04;73807.84;;;33.12
78669;BMP280;67984;45.118;20.724;2023-07-13T19:53:16;73762.19;;;32.70
78669;BMP280;67984;45.118;20.724;2023-07-13T20:03:18;73717.00;;;32.29
78669;BMP280;67984;45.118;20.724;2023-07-13T20:13:19;73672.91;;;31.88
78669;BMP280;67984;45.118;20.724;2023-07-13T20:23:24;73632.94;;;31.49
78669;BMP280;67984;45.118;20.724;2023-07-13T20:33:28;73591.34;;;31.11
78669;BMP280;67984;45.118;20.724;2023-07-13T20:43:30;73550.75;;;30.74
78669;BMP280;67984;45.118;20.724;2023-07-13T20:53:33;73514.38;;;30.39
78669;BMP280;67984;45.118;20.724;2023-07-13T21:03:33;73477.34;;;30.05
78669;BMP280;67984;45.118;20.724;2023-07-13T21:13:34;73442.81;;;29.74
78669;BMP280;67984;45.118;20.724;2023-07-13T21:23:36;73411.50;;;29.43
78669;BMP280;67984;45.118;20.724;2023-07-13T21:33:38;73379.03;;;29.14
78669;BMP280;67984;45.118;20.724;2023-07-13T21:43:39;73351.22;;;28.87
78669;BMP280;67984;45.118;20.724;2023-07-13T21:53:40;73322.81;;;28.62
78669;BMP280;67984;45.118;20.724;2023-07-13T22:03:41;73298.56;;;28.38
78669;BMP280;67984;45.118;20.724;2023-07-13T22:13:42;73276.34;;;28.16
78669;BMP280;67984;45.118;20.724;2023-07-13T22:33:44;73235.28;;;27.79
78669;BMP280;67984;45.118;20.724;2023-07-13T22:43:46;73218.09;;;27.62
78669;BMP280;67984;45.118;20.724;2023-07-13T22:53:47;73201.97;;;27.46
78669;BMP280;67984;45.118;20.724;2023-07-13T23:03:52;73180.63;;;27.28
78669;BMP280;67984;45.118;20.724;2023-07-13T23:13:53;73160.41;;;27.08
